• Join FlightAware (Why Join?)
  • Login
  • US Flag 
11:17AM EST


 

Airport Tracker/Info


-or-


 

Live Flight TrackerFlight Track Log ✈ JZA7895 ✈ 21-Jul-2014 ✈ CYYZ - KCMH

Flight Track Log - Related Links

Times and Time Zones

All times are in EDT time to prevent confusion due to time zone crossing. See the JZA7895 flight status page for this flight to view local times or setup timezone preferences in your user account.

Time Position Orientation Groundspeed Altitude Reporting Facility
EDT Latitude Longitude Course Direction KTS MPH feet Rate Location/Type
08:48PM 43.6167 -79.6167 206° Southwest 150 173 2,100  Level Toronto Center
08:49PM 43.5667 -79.6167 180° South 170 196 2,900 900 Climbing Toronto Center
08:50PM 43.5167 -79.6333 194° South 170 196 3,900 960 Climbing Toronto Center
08:51PM 43.4667 -79.6333 180° South 170 196 4,900 900 Climbing Toronto Center
08:52PM 43.3325 -79.9006 206° Southwest  Level FlightAware Approximate
08:52PM 43.4333 -79.7000 235° Southwest 180 207 5,800  Level Toronto Center
08:53PM 43.6133 -79.6523 206° Southwest  Level FlightAware Approximate
08:53PM 43.4167 -79.7500 245° Southwest 180 207 6,800  Level Toronto Center
08:54PM 43.3667 -79.8000 216° Southwest 180 207 7,700 840 Climbing Toronto Center
08:55PM 43.3333 -79.8667 236° Southwest 190 219 8,500 720 Climbing Toronto Center
08:56PM 43.3000 -79.9000 216° Southwest 190 219 9,200 780 Climbing Toronto Center
08:57PM 43.2667 -79.9833 241° Southwest 200 230 10,100 900 Climbing Toronto Center
08:58PM 43.2333 -80.0167 216° Southwest 190 219 11,000 840 Climbing Toronto Center
08:59PM 43.2000 -80.0833 236° Southwest 200 230 11,800 480 Climbing Toronto Center
09:00PM 43.1667 -80.1333 228° Southwest 200 230 12,000 180 Climbing Toronto Center
09:01PM 43.1167 -80.2000 224° Southwest 230 265 12,200 360 Climbing Toronto Center
09:02PM 43.0833 -80.2667 236° Southwest 230 265 12,800 660 Climbing Toronto Center
09:03PM 43.0500 -80.3333 236° Southwest 220 253 13,600 720 Climbing Toronto Center
09:04PM 43.0000 -80.4000 224° Southwest 220 253 14,300 600 Climbing Toronto Center
09:05PM 42.9667 -80.4500 228° Southwest 220 253 14,900 540 Climbing Toronto Center
09:06PM 42.9167 -80.5167 224° Southwest 230 265 15,400 540 Climbing Toronto Center
09:07PM 42.8833 -80.5833 236° Southwest 230 265 16,000 600 Climbing Toronto Center
09:08PM 42.8333 -80.6500 224° Southwest 230 265 16,600 600 Climbing Toronto Center
09:09PM 42.8000 -80.7167 236° Southwest 230 265 17,200 540 Climbing Toronto Center
09:10PM 42.7500 -80.7833 224° Southwest 230 265 17,700 480 Climbing Toronto Center
09:11PM 42.7000 -80.8500 224° Southwest 230 265 18,200 480 Climbing Toronto Center
09:12PM 42.6500 -80.9000 216° Southwest 230 265 18,700 420 Climbing Toronto Center
09:13PM 42.5833 -80.9500 209° Southwest 230 265 19,100 600 Climbing Toronto Center
09:14PM 42.5333 -80.9833 206° Southwest 230 265 19,900 600 Climbing Toronto Center
09:15PM 42.4833 -81.0333 216° Southwest 210 242 20,400 360 Climbing Toronto Center
09:16PM 42.4333 -81.0500 194° South 210 242 20,700 300 Climbing Toronto Center
09:17PM 42.3833 -81.1000 216° Southwest 220 253 21,100 420 Climbing Toronto Center
09:18PM 42.3167 -81.1500 209° Southwest 220 253 21,600 420 Climbing Toronto Center
09:19PM 42.2667 -81.1667 194° South 220 253 22,000 180 Climbing Toronto Center
09:20PM 42.2000 -81.2167 209° Southwest 230 265 22,000  Level Toronto Center
09:20PM 42.2011 -81.2444 273° West 230 265 22,000  Level Cleveland Center
09:21PM 42.1389 -81.2861 206° Southwest 244 281 22,000  Level Cleveland Center
09:22PM 42.0753 -81.3294 207° Southwest 249 287 22,000  Level Cleveland Center
09:23PM 42.0092 -81.3722 206° Southwest 259 298 22,000  Level Cleveland Center
09:24PM 41.9336 -81.4244 207° Southwest 260 299 22,000  Level Cleveland Center
09:25PM 41.8675 -81.4694 207° Southwest 260 299 22,000  Level Cleveland Center
09:26PM 41.8019 -81.5122 206° Southwest 260 299 22,000  Level Cleveland Center
09:27PM 41.7358 -81.5564 207° Southwest 262 302 22,000  Level Cleveland Center
09:28PM 41.6703 -81.6006 207° Southwest 262 302 22,000  Level Cleveland Center
09:29PM 41.6042 -81.6450 207° Southwest 262 302 22,000  Level Cleveland Center
09:31PM 41.5378 -81.6889 206° Southwest 262 302 22,000  Level Cleveland Center
09:32PM 41.4722 -81.7328 207° Southwest 262 302 22,000  Level Cleveland Center
09:33PM 41.4075 -81.7764 207° Southwest 262 302 22,000  Level Cleveland Center
09:34PM 41.3361 -81.8231 206° Southwest 262 302 22,000  Level Cleveland Center
09:35PM 41.2717 -81.8658 207° Southwest 261 300 22,000 -240 Level Cleveland Center
09:36PM 41.2081 -81.9072 206° Southwest 258 297 21,600 -960 Descending Cleveland Center
09:37PM 41.1350 -81.9542 206° Southwest 287 330 20,100 -1,560 Descending Cleveland Center
09:38PM 41.0506 -82.0092 206° Southwest 313 360 18,500 -1,500 Descending Cleveland Center
09:39PM 40.9725 -82.0600 206° Southwest 310 357 17,100 -1,500 Descending Cleveland Center
09:40PM 40.8958 -82.1094 206° Southwest 308 354 15,500 -1,620 Descending Cleveland Center
09:41PM 40.8078 -82.1661 206° Southwest 302 348 13,800 -1,560 Descending Cleveland Center
09:42PM 40.7353 -82.2136 206° Southwest 292 336 12,400 -1,380 Descending Cleveland Center
09:43PM 40.6636 -82.2589 206° Southwest 288 331 11,000 -1,020 Descending Cleveland Center
09:44PM 40.5636 -82.3261 207° Southwest 275 316 9,900 -420 Descending Indianapolis Center
09:45PM 40.5075 -82.3697 211° Southwest 254 292 10,000 60 Climbing Indianapolis Center
09:45PM 40.4992 -82.3744 203° Southwest 261 300 10,000 -120 Level Indianapolis Center
09:46PM 40.4575 -82.4333 227° Southwest 253 291 9,900  Descending Indianapolis Center
09:47PM 40.4419 -82.4547 226° Southwest 258 297 10,000 60 Climbing Indianapolis Center
09:49PM 40.3189 -82.6139 225° Southwest 254 292 10,100 -300 Climbing Cleveland Center
09:50PM 40.2742 -82.6875 231° Southwest 255 293 9,000 -1,200 Descending Cleveland Center
09:51PM 40.2461 -82.7328 231° Southwest 266 306 8,200 -1,500 Descending Indianapolis Center
09:51PM 40.2178 -82.7828 233° Southwest 273 314 7,300 -1,320 Descending Indianapolis Center
09:52PM 40.2028 -82.8117 236° Southwest 266 306 6,900 -1,440 Descending Indianapolis Center
09:52PM 40.1794 -82.8561 236° Southwest 249 287 5,900 -1,500 Descending Indianapolis Center
09:53PM 40.1642 -82.8853 236° Southwest 251 289 5,400 -1,500 Descending Indianapolis Center
09:53PM 40.1414 -82.9267 234° Southwest 238 274 4,400 -1,500 Descending Indianapolis Center
09:54PM 40.1267 -82.9544 235° Southwest 239 275 3,900 -1,320 Descending Indianapolis Center
09:54PM 40.1031 -82.9753 214° Southwest 199 229 3,200 -1,140 Descending Indianapolis Center
09:55PM 40.0781 -82.9842 195° South 206 237 2,800 -900 Descending Indianapolis Center
09:55PM 40.0511 -82.9917 192° South 167 192 2,300 -600 Descending Indianapolis Center
09:56PM 40.0306 -82.9922 181° South 186 214 2,200 -540 Descending Indianapolis Center
09:56PM 40.0122 -82.9797 152° Southeast 134 154 1,800 -600 Descending Indianapolis Center
09:57PM 40.0069 -82.9594 109° East 153 176 1,600 -600 Descending Indianapolis Center
09:57PM 40.0036 -82.9375 101° East 113 130 1,200 -600 Descending Indianapolis Center
09:58PM 40.0031 -82.9172 92° East 130 150 1,000 -360 Descending Indianapolis Center